Time;durP1;ratioP1;P1;durP2;ratioP2;P2;SDS_P1;SDS_P2;PMS_P1;PMS_P2;Temp;Humidity;BMP_temperature;BMP_pressure;BME280_temperature;BME280_humidity;BME280_pressure;Samples;Min_cycle;Max_cycle;Signal;HPM_P1;HPM_P2
2022/08/26 00:01:38;;;;;;;;;;;;;;;29.59;36.45;99947.97;5066513;28;969;-43
2022/08/26 00:04:03;;;;;;;;;;;;;;;29.59;36.66;99942.53;5070885;28;1001;-44
2022/08/26 00:06:30;;;;;;;;;;;;;;;29.63;36.57;99946.44;5069530;28;973;-44
2022/08/26 00:08:55;;;;;;;;;;;;;;;29.63;36.33;99945.66;5062221;28;857;-43
2022/08/26 00:11:20;;;;;;;;;;;;;;;29.58;36.69;99947.09;5073121;28;1238;-43
2022/08/26 00:13:46;;;;;;;;;;;;;;;29.64;36.73;99950.84;5072439;28;970;-42
2022/08/26 00:16:11;;;;;;;;;;;;;;;29.58;36.99;99952.50;5075696;28;1028;-43
2022/08/26 00:18:37;;;;;;;;;;;;;;;29.55;36.90;99952.09;5073784;28;1971;-42
2022/08/26 00:21:02;;;;;;;;;;;;;;;29.54;37.37;99953.16;5071965;28;962;-44
2022/08/26 00:23:28;;;;;;;;;;;;;;;29.56;37.48;99945.66;5074546;28;1143;-42
2022/08/26 00:25:53;;;;;;;;;;;;;;;29.55;37.79;99947.53;5066878;28;2640;-42
2022/08/26 00:28:18;;;;;;;;;;;;;;;29.54;37.30;99936.91;5053064;28;1096;-42
2022/08/26 00:30:46;;;;;;;;;;;;;;;29.54;37.52;99943.16;5067737;28;985;-45
2022/08/26 00:33:12;;;;;;;;;;;;;;;29.50;37.79;99943.81;5069861;28;816;-42
2022/08/26 00:35:37;;;;;;;;;;;;;;;29.47;37.74;99942.38;5070199;28;1179;-43
2022/08/26 00:38:03;;;;;;;;;;;;;;;29.48;37.64;99946.72;5056073;28;1121;-43
2022/08/26 00:40:48;;;;;;;;;;;;;;;29.46;37.78;99941.53;5072613;28;1967;-46
2022/08/26 00:43:14;;;;;;;;;;;;;;;29.50;37.84;99938.38;5071839;28;1064;-43
2022/08/26 00:45:43;;;;;;;;;;;;;;;29.50;37.54;99938.38;5071845;28;884;-41
2022/08/26 00:48:08;;;;;;;;;;;;;;;29.49;38.08;99940.28;5053506;28;1203;-43
2022/08/26 00:50:38;;;;;;;;;;;;;;;29.38;38.17;99939.09;5074440;28;1079;-42
2022/08/26 00:53:04;;;;;;;;;;;;;;;29.48;38.31;99938.59;5074225;28;1080;-40
2022/08/26 00:55:32;;;;;;;;;;;;;;;29.42;38.48;99932.19;5056001;28;2362;-42
2022/08/26 00:57:57;;;;;;;;;;;;;;;29.38;38.30;99933.66;5068339;28;964;-40
2022/08/26 01:00:24;;;;;;;;;;;;;;;29.39;38.17;99929.94;5048604;28;1965;-42
2022/08/26 01:02:50;;;;;;;;;;;;;;;29.39;38.50;99931.81;5070499;28;1068;-40
2022/08/26 01:05:15;;;;;;;;;;;;;;;29.40;38.71;99931.56;5049606;28;989;-41
2022/08/26 01:07:40;;;;;;;;;;;;;;;29.35;38.53;99934.13;5072348;28;1087;-40
2022/08/26 01:10:07;;;;;;;;;;;;;;;29.29;37.74;99930.41;5061896;28;1191;-40
2022/08/26 01:12:32;;;;;;;;;;;;;;;29.45;37.47;99948.00;5056140;28;1084;-41
2022/08/26 01:14:58;;;;;;;;;;;;;;;29.46;37.97;99936.13;5072535;28;1202;-41
2022/08/26 01:17:24;;;;;;;;;;;;;;;29.50;37.83;99938.38;5056699;28;1080;-41
2022/08/26 01:19:50;;;;;;;;;;;;;;;29.48;37.77;99935.91;5074976;28;1909;-40
2022/08/26 01:22:16;;;;;;;;;;;;;;;29.47;37.49;99931.53;5069874;28;977;-41
2022/08/26 01:24:42;;;;;;;;;;;;;;;29.52;37.64;99933.59;5051491;28;1151;-44
2022/08/26 01:27:07;;;;;;;;;;;;;;;29.55;38.10;99927.72;5065701;28;2432;-44
2022/08/26 01:29:33;;;;;;;;;;;;;;;29.53;37.82;99917.09;5071481;28;1153;-40
2022/08/26 01:31:58;;;;;;;;;;;;;;;29.51;38.18;99927.31;5051232;28;1119;-45
2022/08/26 01:34:24;;;;;;;;;;;;;;;29.48;38.33;99926.97;5072127;28;1060;-44
2022/08/26 01:36:50;;;;;;;;;;;;;;;29.55;38.06;99917.72;5073183;28;1004;-43
2022/08/26 01:39:15;;;;;;;;;;;;;;;29.59;37.62;99918.16;5073448;28;1953;-43
2022/08/26 01:41:40;;;;;;;;;;;;;;;29.61;38.08;99910.63;5074607;28;984;-42
2022/08/26 01:44:07;;;;;;;;;;;;;;;29.72;38.07;99916.38;5070706;28;1135;-42
2022/08/26 01:46:32;;;;;;;;;;;;;;;29.67;38.29;99919.75;5052536;28;1157;-42
2022/08/26 01:48:58;;;;;;;;;;;;;;;29.64;38.33;99902.06;5073881;28;957;-43
2022/08/26 01:51:24;;;;;;;;;;;;;;;29.67;38.30;99904.31;5055469;28;1179;-42
2022/08/26 01:53:49;;;;;;;;;;;;;;;29.67;38.18;99896.19;5075394;28;1036;-42
2022/08/26 01:56:14;;;;;;;;;;;;;;;29.76;38.31;99906.75;5061525;28;1797;-43
2022/08/26 01:59:06;;;;;;;;;;;;;;;29.68;38.63;99903.25;5066557;28;1945;-43
2022/08/26 02:01:32;;;;;;;;;;;;;;;29.75;38.75;99907.78;5061620;28;1439;-44
2022/08/26 02:04:02;;;;;;;;;;;;;;;29.67;38.55;99900.78;5070857;28;1059;-43
2022/08/26 02:06:27;;;;;;;;;;;;;;;29.72;38.71;99906.38;5045798;28;1084;-39
2022/08/26 02:08:53;;;;;;;;;;;;;;;29.71;39.04;99899.28;5054146;28;1092;-41
2022/08/26 02:11:19;;;;;;;;;;;;;;;29.76;39.26;99904.03;5071990;28;1079;-41
2022/08/26 02:13:49;;;;;;;;;;;;;;;29.69;39.41;99898.69;5073656;28;1032;-42
2022/08/26 02:16:15;;;;;;;;;;;;;;;29.69;39.12;99896.81;5075080;28;1000;-42
2022/08/26 02:18:40;;;;;;;;;;;;;;;29.70;39.22;99903.88;5070715;28;1902;-40
2022/08/26 02:21:05;;;;;;;;;;;;;;;29.72;39.51;99905.53;5050225;28;1036;-40
2022/08/26 02:23:31;;;;;;;;;;;;;;;29.68;39.31;99903.25;5067349;28;1048;-42
2022/08/26 02:25:56;;;;;;;;;;;;;;;29.64;38.88;99893.94;5069284;28;2263;-42
2022/08/26 02:28:21;;;;;;;;;;;;;;;29.72;39.50;99900.94;5071011;28;1059;-41
2022/08/26 02:30:47;;;;;;;;;;;;;;;29.73;38.97;99901.78;5069720;28;1032;-41
2022/08/26 02:33:13;;;;;;;;;;;;;;;29.72;39.54;99897.38;5068485;28;997;-42
2022/08/26 02:35:38;;;;;;;;;;;;;;;29.67;39.28;99907.03;5072119;28;1175;-41
2022/08/26 02:38:06;;;;;;;;;;;;;;;29.73;39.16;99908.00;5074647;28;973;-41
2022/08/26 02:40:32;;;;;;;;;;;;;;;29.76;39.19;99902.16;5072027;28;1970;-41
2022/08/26 02:42:58;;;;;;;;;;;;;;;29.78;39.07;99905.47;5067600;28;989;-41
2022/08/26 02:45:23;;;;;;;;;;;;;;;29.76;39.10;99917.59;5071836;28;1091;-41
2022/08/26 02:47:49;;;;;;;;;;;;;;;29.71;39.12;99915.56;5077138;28;1194;-41
2022/08/26 02:50:14;;;;;;;;;;;;;;;29.77;39.12;99906.53;5060417;28;1032;-44
2022/08/26 02:52:40;;;;;;;;;;;;;;;29.69;39.27;99907.66;5071803;28;1036;-41
2022/08/26 02:55:05;;;;;;;;;;;;;;;29.66;39.70;99910.78;5068527;28;1059;-42
2022/08/26 02:57:31;;;;;;;;;;;;;;;29.71;38.99;99893.88;5069572;28;2542;-43
2022/08/26 02:59:56;;;;;;;;;;;;;;;29.68;39.45;99911.41;5069729;28;1957;-42
2022/08/26 03:02:22;;;;;;;;;;;;;;;29.68;39.66;99899.72;5075233;28;1117;-42
2022/08/26 03:04:47;;;;;;;;;;;;;;;29.72;39.64;99908.25;5073859;28;1198;-41
2022/08/26 03:07:12;;;;;;;;;;;;;;;29.67;39.59;99912.44;5071158;28;909;-41
2022/08/26 03:09:38;;;;;;;;;;;;;;;29.60;39.39;99911.66;5073392;28;1432;-40
2022/08/26 03:12:03;;;;;;;;;;;;;;;29.68;39.42;99918.69;5078058;28;1031;-41
2022/08/26 03:14:29;;;;;;;;;;;;;;;29.64;39.18;99910.19;5071929;28;1009;-44
2022/08/26 03:16:54;;;;;;;;;;;;;;;29.60;38.74;99916.25;5067714;28;996;-42
2022/08/26 03:19:22;;;;;;;;;;;;;;;29.56;38.54;99903.09;5072414;28;1906;-41
2022/08/26 03:21:48;;;;;;;;;;;;;;;29.54;38.29;99928.78;5067077;28;1024;-42
2022/08/26 03:24:13;;;;;;;;;;;;;;;29.49;37.60;99915.06;5073099;28;1052;-41
2022/08/26 03:26:38;;;;;;;;;;;;;;;29.50;37.48;99911.28;5074423;28;2262;-42
2022/08/26 03:31:47;;;;;;;;;;;;;;;29.54;38.83;99915.22;5075396;28;1072;-40
2022/08/26 03:34:13;;;;;;;;;;;;;;;29.50;38.87;99917.53;5072035;28;922;-44
2022/08/26 03:36:38;;;;;;;;;;;;;;;29.57;39.56;99917.50;5069644;28;1175;-45
2022/08/26 03:39:04;;;;;;;;;;;;;;;29.51;39.73;99919.19;5068254;28;1952;-43
2022/08/26 03:41:31;;;;;;;;;;;;;;;29.56;40.69;99913.13;5072528;28;1173;-42
2022/08/26 03:43:56;;;;;;;;;;;;;;;29.60;42.02;99919.78;5074100;28;1095;-43
2022/08/26 03:46:22;;;;;;;;;;;;;;;29.48;42.52;99921.53;5076597;28;1143;-41
2022/08/26 03:48:47;;;;;;;;;;;;;;;29.56;42.67;99926.69;5071686;28;965;-40
2022/08/26 03:51:13;;;;;;;;;;;;;;;28.79;38.48;99922.91;5069593;28;973;-42
2022/08/26 03:53:38;;;;;;;;;;;;;;;28.96;38.20;99921.38;5070576;28;973;-42
2022/08/26 03:56:05;;;;;;;;;;;;;;;28.96;38.35;99926.78;5069585;28;2355;-39
2022/08/26 03:58:30;;;;;;;;;;;;;;;29.19;37.60;99925.47;5068765;28;834;-40
2022/08/26 04:00:56;;;;;;;;;;;;;;;28.59;35.50;99921.94;5074727;28;1956;-45
2022/08/26 04:06:06;;;;;;;;;;;;;;;28.36;35.94;99922.44;5076274;28;1040;-39
2022/08/26 04:08:31;;;;;;;;;;;;;;;28.28;35.87;99920.75;5076224;28;1078;-39
2022/08/26 04:10:56;;;;;;;;;;;;;;;28.34;35.72;99922.63;5066370;28;1094;-39
2022/08/26 04:13:22;;;;;;;;;;;;;;;28.27;35.33;99924.50;5067811;28;1041;-37
2022/08/26 04:15:47;;;;;;;;;;;;;;;28.22;35.46;99932.41;5069508;28;957;-37
2022/08/26 04:18:12;;;;;;;;;;;;;;;28.32;35.25;99929.28;5065472;28;973;-39
2022/08/26 04:20:38;;;;;;;;;;;;;;;28.42;34.54;99932.41;5070718;28;1964;-38
2022/08/26 04:23:03;;;;;;;;;;;;;;;28.44;34.31;99933.03;5064175;28;958;-38
2022/08/26 04:25:28;;;;;;;;;;;;;;;28.43;34.05;99930.50;5070261;28;2185;-39
2022/08/26 04:27:54;;;;;;;;;;;;;;;28.49;33.54;99932.41;5071732;28;1107;-37
2022/08/26 04:30:20;;;;;;;;;;;;;;;28.64;33.44;99925.88;5075626;28;1199;-37
2022/08/26 04:32:45;;;;;;;;;;;;;;;28.52;33.35;99931.13;5076988;28;1047;-37
2022/08/26 04:35:10;;;;;;;;;;;;;;;28.58;33.25;99933.81;5068939;28;882;-37
2022/08/26 04:37:36;;;;;;;;;;;;;;;28.20;33.99;99942.59;5066225;28;1063;-40
2022/08/26 04:40:02;;;;;;;;;;;;;;;28.51;33.80;99943.81;5069956;28;1930;-41
2022/08/26 04:42:28;;;;;;;;;;;;;;;28.60;33.88;99945.25;5058813;28;1310;-40
2022/08/26 04:44:54;;;;;;;;;;;;;;;28.73;33.71;99949.78;5060147;28;1235;-40
2022/08/26 04:47:19;;;;;;;;;;;;;;;28.84;33.83;99951.00;5061134;28;1246;-40
2022/08/26 04:49:44;;;;;;;;;;;;;;;28.81;34.04;99954.13;5061145;28;1278;-40
2022/08/26 04:52:10;;;;;;;;;;;;;;;28.81;34.19;99947.91;5061396;28;1290;-39
2022/08/26 04:54:36;;;;;;;;;;;;;;;28.87;34.38;99948.91;5060765;28;1069;-39
2022/08/26 04:57:01;;;;;;;;;;;;;;;28.87;34.33;99949.75;5060300;28;1778;-40
2022/08/26 04:59:26;;;;;;;;;;;;;;;28.83;34.65;99954.75;5062597;28;1898;-42
2022/08/26 05:01:54;;;;;;;;;;;;;;;28.55;35.13;99945.06;5059202;28;1120;-40
2022/08/26 05:04:20;;;;;;;;;;;;;;;28.46;35.44;99949.88;5058828;28;1064;-39
2022/08/26 05:06:47;;;;;;;;;;;;;;;28.58;35.39;99941.94;5061301;28;1180;-41
2022/08/26 05:09:12;;;;;;;;;;;;;;;28.51;35.64;99948.41;5060810;28;1136;-40
2022/08/26 05:11:37;;;;;;;;;;;;;;;28.58;35.45;99950.03;5058182;28;1279;-40
2022/08/26 05:14:03;;;;;;;;;;;;;;;28.39;35.72;99948.22;5059937;28;1200;-39
2022/08/26 05:16:30;;;;;;;;;;;;;;;28.57;35.85;99952.97;5059134;28;1184;-39
2022/08/26 05:18:55;;;;;;;;;;;;;;;28.55;35.55;99955.03;5061873;28;1967;-40
2022/08/26 05:21:21;;;;;;;;;;;;;;;28.42;35.69;99955.91;5060977;28;1247;-40
2022/08/26 05:23:47;;;;;;;;;;;;;;;28.55;35.82;99949.63;5057545;28;1169;-40
2022/08/26 05:26:12;;;;;;;;;;;;;;;28.39;35.70;99949.06;5060371;28;1810;-39
2022/08/26 05:28:37;;;;;;;;;;;;;;;28.53;36.08;99941.72;5059871;28;1273;-41
2022/08/26 05:31:22;;;;;;;;;;;;;;;28.54;36.42;99953.41;5062352;28;1329;-43
2022/08/26 05:33:47;;;;;;;;;;;;;;;28.73;35.94;99943.53;5072516;28;1163;-40
2022/08/26 05:36:16;;;;;;;;;;;;;;;28.62;36.14;99953.16;5064864;28;1298;-42
2022/08/26 05:38:42;;;;;;;;;;;;;;;28.60;36.15;99966.06;5074836;28;1956;-41
2022/08/26 05:41:23;;;;;;;;;;;;;;;28.60;36.44;99964.19;5061094;28;1235;-45
2022/08/26 05:43:48;;;;;;;;;;;;;;;28.73;35.39;99966.03;5056448;28;1052;-45
2022/08/26 05:46:14;;;;;;;;;;;;;;;28.68;35.69;99973.13;5071976;28;861;-42
2022/08/26 05:48:39;;;;;;;;;;;;;;;28.80;35.89;99973.28;5063727;28;937;-44
2022/08/26 05:51:06;;;;;;;;;;;;;;;28.87;35.33;99967.84;5064085;28;1055;-44
2022/08/26 05:53:31;;;;;;;;;;;;;;;28.76;35.56;99972.06;5063153;28;1242;-47
2022/08/26 05:55:57;;;;;;;;;;;;;;;28.93;34.93;99962.41;5056610;28;1740;-48
2022/08/26 05:58:22;;;;;;;;;;;;;;;28.84;35.07;99964.53;5061325;28;1105;-47
2022/08/26 06:01:07;;;;;;;;;;;;;;;28.69;35.49;99958.56;5069589;28;1976;-48
2022/08/26 06:03:33;;;;;;;;;;;;;;;28.55;35.65;99960.47;5045199;28;1493;-46
2022/08/26 06:06:01;;;;;;;;;;;;;;;28.57;35.65;99961.94;5066967;28;1275;-42
2022/08/26 06:08:27;;;;;;;;;;;;;;;28.67;35.35;99958.78;5063269;28;1497;-43
2022/08/26 06:10:53;;;;;;;;;;;;;;;28.27;35.67;99967.78;5068399;28;1409;-44
2022/08/26 06:13:19;;;;;;;;;;;;;;;28.22;35.61;99963.00;5071528;28;1064;-40
2022/08/26 06:15:45;;;;;;;;;;;;;;;28.51;35.79;99970.06;5062545;28;913;-42
2022/08/26 06:18:10;;;;;;;;;;;;;;;28.36;35.78;99971.94;5071352;28;993;-42
2022/08/26 06:20:36;;;;;;;;;;;;;;;28.27;35.98;99975.88;5068860;28;1914;-43
2022/08/26 06:25:45;;;;;;;;;;;;;;;28.57;35.99;99980.03;5055043;28;1928;-42
2022/08/26 06:28:11;;;;;;;;;;;;;;;28.68;35.72;99983.94;5063757;28;1513;-39
2022/08/26 06:30:37;;;;;;;;;;;;;;;28.82;35.55;99984.75;5069436;28;1178;-49
2022/08/26 06:33:02;;;;;;;;;;;;;;;28.69;35.46;99991.88;5071290;28;1306;-47
2022/08/26 06:35:28;;;;;;;;;;;;;;;28.64;35.55;99991.69;5063177;28;1071;-48
2022/08/26 06:37:53;;;;;;;;;;;;;;;28.84;35.70;99996.19;5069525;28;1219;-46
2022/08/26 06:40:21;;;;;;;;;;;;;;;28.41;35.94;99997.53;5069177;28;1972;-47
2022/08/26 06:42:46;;;;;;;;;;;;;;;28.28;36.14;100001.06;5067344;28;1061;-44
2022/08/26 06:45:11;;;;;;;;;;;;;;;28.19;35.97;99997.75;5066332;28;1329;-35
2022/08/26 06:47:37;;;;;;;;;;;;;;;28.51;35.88;99991.69;5061724;28;1059;-35
2022/08/26 06:50:02;;;;;;;;;;;;;;;28.68;35.12;99994.75;5059030;28;1271;-36
2022/08/26 06:52:28;;;;;;;;;;;;;;;28.46;35.78;100011.28;5059614;28;1419;-33
2022/08/26 06:54:53;;;;;;;;;;;;;;;28.33;35.32;100021.06;5064022;28;1191;-34
2022/08/26 06:57:18;;;;;;;;;;;;;;;28.36;35.26;100019.81;5063312;28;1705;-34
2022/08/26 06:59:43;;;;;;;;;;;;;;;28.29;35.25;100018.94;5059632;28;1906;-33
2022/08/26 07:02:09;;;;;;;;;;;;;;;28.75;35.73;100019.09;5063123;28;1243;-35
2022/08/26 07:04:34;;;;;;;;;;;;;;;28.46;35.34;100005.88;5062032;28;1215;-34
2022/08/26 07:06:59;;;;;;;;;;;;;;;28.62;35.68;100007.28;5060216;28;1232;-36
2022/08/26 07:09:26;;;;;;;;;;;;;;;29.03;35.11;100010.72;5061416;28;1263;-32
2022/08/26 07:11:51;;;;;;;;;;;;;;;29.14;35.53;100001.13;5054245;28;1304;-32
2022/08/26 07:14:17;;;;;;;;;;;;;;;29.15;35.52;100007.34;5056051;28;1151;-37
2022/08/26 07:16:42;;;;;;;;;;;;;;;29.05;35.86;100003.22;5064097;28;1227;-42
2022/08/26 07:19:08;;;;;;;;;;;;;;;28.93;35.01;100004.88;5058652;28;1952;-47
2022/08/26 07:21:33;;;;;;;;;;;;;;;28.92;35.22;100006.78;5073097;28;981;-31
2022/08/26 07:23:58;;;;;;;;;;;;;;;28.39;35.75;100008.56;5070144;28;1109;-34
2022/08/26 07:26:25;;;;;;;;;;;;;;;28.25;35.65;100010.41;5073547;28;1964;-34
2022/08/26 07:28:51;;;;;;;;;;;;;;;28.28;35.20;100011.88;5066078;28;1032;-36
2022/08/26 07:31:17;;;;;;;;;;;;;;;28.36;34.14;100020.63;5065429;28;997;-32
2022/08/26 07:33:42;;;;;;;;;;;;;;;28.34;34.67;100017.28;5070510;28;1016;-32
2022/08/26 07:36:08;;;;;;;;;;;;;;;28.51;34.26;100026.88;5068933;28;1127;-34
2022/08/26 07:38:33;;;;;;;;;;;;;;;28.25;35.07;100021.22;5055722;28;1345;-31
2022/08/26 07:40:59;;;;;;;;;;;;;;;28.38;34.94;100027.72;5066928;28;1925;-32
2022/08/26 07:43:24;;;;;;;;;;;;;;;28.70;34.79;100027.88;5066944;28;1013;-29
2022/08/26 07:45:49;;;;;;;;;;;;;;;28.54;34.22;100026.44;5069645;28;981;-34
2022/08/26 07:48:15;;;;;;;;;;;;;;;28.28;34.29;100018.09;5068161;28;945;-31
2022/08/26 07:50:41;;;;;;;;;;;;;;;28.21;34.60;100022.72;5074251;28;1009;-35
2022/08/26 07:53:06;;;;;;;;;;;;;;;28.21;34.46;100023.50;5072626;28;1111;-34
2022/08/26 07:55:32;;;;;;;;;;;;;;;28.61;34.68;100021.88;5074978;28;1921;-30
2022/08/26 07:57:57;;;;;;;;;;;;;;;28.33;34.67;100017.50;5061721;28;1188;-33
2022/08/26 08:00:22;;;;;;;;;;;;;;;28.15;34.86;100007.28;5050219;28;1898;-33
2022/08/26 08:02:48;;;;;;;;;;;;;;;28.11;34.47;100006.91;5056947;28;1246;-35
2022/08/26 08:05:14;;;;;;;;;;;;;;;28.54;34.67;100002.09;5060225;28;985;-32
2022/08/26 08:07:40;;;;;;;;;;;;;;;28.16;34.87;100000.88;5065001;28;1347;-32
2022/08/26 08:10:06;;;;;;;;;;;;;;;28.22;34.42;100003.56;5020329;28;1206158;-33
2022/08/26 08:12:31;;;;;;;;;;;;;;;28.40;34.16;99999.41;5068517;28;922;-36
2022/08/26 08:14:57;;;;;;;;;;;;;;;28.65;33.92;99996.03;5071958;28;1167;-45
2022/08/26 08:17:22;;;;;;;;;;;;;;;28.20;34.72;99997.53;5065647;28;1183;-44
2022/08/26 08:19:47;;;;;;;;;;;;;;;28.20;34.30;99993.97;5062151;28;1973;-44
2022/08/26 08:22:16;;;;;;;;;;;;;;;28.16;34.42;100001.66;5062265;28;1096;-46
2022/08/26 08:24:41;;;;;;;;;;;;;;;28.13;34.37;99993.16;5061195;28;1010;-47
2022/08/26 08:27:07;;;;;;;;;;;;;;;28.21;34.21;99992.97;5058214;28;1813;-45
2022/08/26 08:29:32;;;;;;;;;;;;;;;28.66;34.54;99994.97;5059912;28;1036;-48
2022/08/26 08:31:58;;;;;;;;;;;;;;;28.81;34.14;99996.63;5044371;28;1430;-43
2022/08/26 08:34:23;;;;;;;;;;;;;;;28.88;34.45;99996.59;5062125;28;1199;-46
2022/08/26 08:36:49;;;;;;;;;;;;;;;28.92;34.21;99995.13;5060806;28;1042;-47
2022/08/26 08:39:14;;;;;;;;;;;;;;;28.92;34.62;99993.25;5060613;28;1898;-42
2022/08/26 08:41:55;;;;;;;;;;;;;;;28.90;34.69;99987.22;5059420;28;1247;-49
2022/08/26 08:44:21;;;;;;;;;;;;;;;28.87;35.02;99986.81;5043471;28;1169;-45
2022/08/26 08:46:48;;;;;;;;;;;;;;;28.93;34.91;99989.50;5038547;28;1193;-46
2022/08/26 08:49:13;;;;;;;;;;;;;;;28.92;35.22;99978.88;5037297;28;1272;-48
2022/08/26 08:51:38;;;;;;;;;;;;;;;29.02;35.01;99986.56;5054345;28;1271;-44
2022/08/26 08:54:04;;;;;;;;;;;;;;;28.99;35.31;99990.56;5057715;28;1184;-46
2022/08/26 08:56:44;;;;;;;;;;;;;;;28.99;35.20;99982.44;5051032;28;1923;-44
2022/08/26 08:59:16;;;;;;;;;;;;;;;28.97;35.21;99989.94;5043361;28;1902;-44
2022/08/26 09:01:42;;;;;;;;;;;;;;;29.02;35.30;99986.56;5039623;28;1248;-48
2022/08/26 09:04:07;;;;;;;;;;;;;;;29.04;35.24;99982.63;5058324;28;1143;-45
2022/08/26 09:06:32;;;;;;;;;;;;;;;29.08;35.08;99989.25;5058139;28;1274;-44
2022/08/26 09:08:58;;;;;;;;;;;;;;;29.06;35.55;99985.13;5060379;28;1247;-44
2022/08/26 09:11:24;;;;;;;;;;;;;;;29.02;35.18;99981.16;5043954;28;1272;-47
2022/08/26 09:13:50;;;;;;;;;;;;;;;29.08;35.31;99980.28;5054358;28;1466;-43
2022/08/26 09:16:17;;;;;;;;;;;;;;;29.14;35.11;99984.88;5056630;28;1291;-44
2022/08/26 09:18:58;;;;;;;;;;;;;;;29.14;35.18;99982.16;5049306;28;959;-48
2022/08/26 09:21:23;;;;;;;;;;;;;;;29.19;35.27;99982.34;5061256;28;1044;-49
2022/08/26 09:23:49;;;;;;;;;;;;;;;29.15;35.22;99978.41;5059835;28;1196;-44
2022/08/26 09:26:15;;;;;;;;;;;;;;;29.27;34.84;99973.13;5053845;28;1742;-44
2022/08/26 09:28:41;;;;;;;;;;;;;;;29.25;35.27;99972.50;5064339;28;1552;-42
2022/08/26 09:31:10;;;;;;;;;;;;;;;29.19;35.50;99968.81;5067893;28;965;-44
2022/08/26 09:33:35;;;;;;;;;;;;;;;29.17;35.57;99968.19;5071129;28;1028;-45
2022/08/26 09:36:21;;;;;;;;;;;;;;;29.23;35.39;99971.88;5066900;28;1200;-43
2022/08/26 09:38:46;;;;;;;;;;;;;;;29.17;35.31;99970.88;5073705;28;1107;-46
2022/08/26 09:41:19;;;;;;;;;;;;;;;29.31;35.49;99966.22;5051809;28;1972;-45
2022/08/26 09:43:55;;;;;;;;;;;;;;;29.44;35.10;99975.31;5063901;28;1013;-47
2022/08/26 09:46:22;;;;;;;;;;;;;;;29.48;35.21;99976.53;5046214;28;1088;-46
2022/08/26 09:48:47;;;;;;;;;;;;;;;29.48;35.18;99981.16;5062553;28;1287;-46
2022/08/26 09:51:21;;;;;;;;;;;;;;;29.49;35.05;99982.78;5051810;28;1441;-49
2022/08/26 09:53:51;;;;;;;;;;;;;;;29.50;34.91;99985.28;5057522;28;1536;-45
2022/08/26 09:56:22;;;;;;;;;;;;;;;29.47;35.19;99983.03;5062454;28;1786;-46
2022/08/26 09:58:47;;;;;;;;;;;;;;;29.51;35.22;99989.66;5062128;28;1270;-46
2022/08/26 10:01:27;;;;;;;;;;;;;;;29.44;34.95;99987.00;5065115;28;1988;-46
2022/08/26 10:03:53;;;;;;;;;;;;;;;29.50;35.18;99987.16;5060546;28;1302;-44
2022/08/26 10:06:20;;;;;;;;;;;;;;;29.42;35.44;99988.25;5035724;28;1457;-46
2022/08/26 10:08:46;;;;;;;;;;;;;;;29.42;35.25;99997.22;5057221;28;1292;-49
2022/08/26 10:11:23;;;;;;;;;;;;;;;29.45;35.52;99998.66;5060165;28;1512;-46
2022/08/26 10:13:56;;;;;;;;;;;;;;;29.50;35.61;99988.00;5055239;28;1137;-51
2022/08/26 10:16:26;;;;;;;;;;;;;;;29.50;35.40;99992.56;5042287;28;1105;-48
2022/08/26 10:18:53;;;;;;;;;;;;;;;29.46;35.28;99993.00;5039236;28;1240;-46
2022/08/26 10:21:35;;;;;;;;;;;;;;;29.45;35.31;99985.09;5054151;28;1286;-46
2022/08/26 10:24:01;;;;;;;;;;;;;;;29.56;35.31;99987.13;5060459;28;981;-45
2022/08/26 10:26:40;;;;;;;;;;;;;;;29.54;35.28;99982.97;5059005;28;2019;-45
2022/08/26 10:29:11;;;;;;;;;;;;;;;29.41;35.28;99982.00;5032267;28;1311;-44
2022/08/26 10:31:36;;;;;;;;;;;;;;;29.24;35.19;99988.97;5064036;28;1267;-44
2022/08/26 10:34:01;;;;;;;;;;;;;;;29.23;35.62;99973.78;5060842;28;1447;-43
2022/08/26 10:39:13;;;;;;;;;;;;;;;29.26;35.69;99984.19;5056140;28;1952;-47
2022/08/26 10:41:40;;;;;;;;;;;;;;;29.23;36.34;99976.50;5041587;28;1562;-45
2022/08/26 10:44:05;;;;;;;;;;;;;;;29.30;35.66;99980.81;5055937;28;1002;-45
2022/08/26 10:46:41;;;;;;;;;;;;;;;29.33;35.62;99974.13;5065805;28;981;-49
2022/08/26 10:49:14;;;;;;;;;;;;;;;29.37;36.32;99974.53;5065026;28;989;-46
2022/08/26 10:51:41;;;;;;;;;;;;;;;29.39;36.14;99977.84;5065748;28;949;-47
2022/08/26 10:54:08;;;;;;;;;;;;;;;29.42;35.97;99972.84;5054559;28;1120;-49
2022/08/26 10:56:40;;;;;;;;;;;;;;;29.33;36.11;99972.25;5040308;28;1982;-43
2022/08/26 10:59:08;;;;;;;;;;;;;;;29.43;36.13;99974.50;5067402;28;1894;-42
2022/08/26 11:01:42;;;;;;;;;;;;;;;29.45;36.18;99980.53;5054034;28;1230;-43
2022/08/26 11:04:10;;;;;;;;;;;;;;;29.50;36.02;99969.03;5060230;28;973;-41
2022/08/26 11:06:36;;;;;;;;;;;;;;;29.58;36.13;99971.47;5060474;28;1263;-45
2022/08/26 11:09:02;;;;;;;;;;;;;;;29.58;36.05;99971.47;5044607;28;1247;-46
2022/08/26 11:11:39;;;;;;;;;;;;;;;29.55;36.09;99971.91;5062642;28;1129;-43
2022/08/26 11:14:08;;;;;;;;;;;;;;;29.55;36.15;99971.91;5065112;28;993;-41
2022/08/26 11:16:39;;;;;;;;;;;;;;;29.56;35.77;99965.44;5064789;28;1282;-44
2022/08/26 11:19:05;;;;;;;;;;;;;;;29.48;34.54;99971.13;5053659;28;1898;-43
2022/08/26 11:21:42;;;;;;;;;;;;;;;29.57;35.83;99969.81;5058991;28;1267;-42
2022/08/26 11:24:07;;;;;;;;;;;;;;;29.51;35.76;99954.41;5060812;28;1196;-43
2022/08/26 11:26:33;;;;;;;;;;;;;;;29.55;35.96;99958.38;5061128;28;1821;-41
2022/08/26 11:28:58;;;;;;;;;;;;;;;29.53;35.29;99955.03;5070570;28;1125;-45
2022/08/26 11:31:24;;;;;;;;;;;;;;;29.59;35.89;99950.66;5063323;28;1200;-45
2022/08/26 11:34:15;;;;;;;;;;;;;;;29.67;35.76;99950.41;5051019;28;1196;-42
2022/08/26 11:36:41;;;;;;;;;;;;;;;29.61;35.76;99955.88;5060653;28;1240;-44
2022/08/26 11:39:27;;;;;;;;;;;;;;;29.67;35.53;99957.69;5053621;28;1894;-42
2022/08/26 11:41:53;;;;;;;;;;;;;;;29.60;36.40;99965.03;5053030;28;1402;-42
2022/08/26 11:44:21;;;;;;;;;;;;;;;29.61;35.89;99964.00;5060067;28;1026;-42
2022/08/26 11:46:50;;;;;;;;;;;;;;;29.60;35.64;99963.16;5058916;28;1298;-42
2022/08/26 11:49:16;;;;;;;;;;;;;;;29.70;35.66;99968.94;5056223;28;1270;-43
2022/08/26 11:51:42;;;;;;;;;;;;;;;29.74;36.19;99966.63;5060418;28;1080;-45
2022/08/26 11:54:17;;;;;;;;;;;;;;;29.70;36.23;99958.09;5056428;28;1275;-44
2022/08/26 11:56:44;;;;;;;;;;;;;;;29.69;36.10;99952.88;5056608;28;1904;-42
2022/08/26 11:59:10;;;;;;;;;;;;;;;29.72;36.08;99959.72;5059809;28;1888;-43
2022/08/26 12:01:37;;;;;;;;;;;;;;;29.71;36.08;99953.50;5047490;28;1364;-45
2022/08/26 12:04:04;;;;;;;;;;;;;;;29.78;36.17;99959.69;5059874;28;1196;-41
2022/08/26 12:06:32;;;;;;;;;;;;;;;29.67;36.05;99944.97;5041886;28;1144;-42
2022/08/26 12:08:58;;;;;;;;;;;;;;;29.82;36.08;99947.38;5063673;28;1227;-42
2022/08/26 12:11:31;;;;;;;;;;;;;;;29.82;35.98;99946.53;5058751;28;1330;-41
2022/08/26 12:14:01;;;;;;;;;;;;;;;29.77;35.58;99946.34;5058965;28;1038;-42
2022/08/26 12:16:27;;;;;;;;;;;;;;;29.74;35.56;99941.38;5058432;28;1263;-43
2022/08/26 12:18:52;;;;;;;;;;;;;;;29.54;35.68;99940.47;5062111;28;1048;-42
2022/08/26 12:21:19;;;;;;;;;;;;;;;29.77;35.65;99939.06;5061294;28;1905;-43
2022/08/26 12:23:44;;;;;;;;;;;;;;;29.80;35.75;99943.19;5043031;28;1220;-42
2022/08/26 12:26:10;;;;;;;;;;;;;;;29.84;35.62;99943.59;5039228;28;1913;-42
2022/08/26 12:28:42;;;;;;;;;;;;;;;29.77;35.46;99940.94;5062694;28;1231;-41
2022/08/26 12:31:07;;;;;;;;;;;;;;;29.85;35.40;99940.66;5065756;28;1282;-41
2022/08/26 12:33:34;;;;;;;;;;;;;;;29.91;35.17;99941.66;5061595;28;1242;-45
2022/08/26 12:36:00;;;;;;;;;;;;;;;29.96;34.95;99935.56;5066287;28;952;-43
2022/08/26 12:38:26;;;;;;;;;;;;;;;29.94;35.05;99935.78;5048617;28;1300;-43
2022/08/26 12:40:51;;;;;;;;;;;;;;;29.97;35.21;99934.50;5055456;28;1957;-40
2022/08/26 12:43:52;;;;;;;;;;;;;;;29.88;35.59;99936.69;5070077;28;1329;-40
2022/08/26 12:46:17;;;;;;;;;;;;;;;29.60;33.87;99935.22;4969585;28;1554;-41
2022/08/26 12:48:44;;;;;;;;;;;;;;;29.79;34.64;99934.25;5035869;28;1474;-44
2022/08/26 12:51:21;;;;;;;;;;;;;;;29.82;35.05;99930.25;5054174;28;1382;-41
2022/08/26 12:53:46;;;;;;;;;;;;;;;29.64;35.13;99925.63;5075716;28;1096;-40
2022/08/26 12:56:26;;;;;;;;;;;;;;;29.68;35.29;99922.22;5069543;28;1960;-42
2022/08/26 12:59:01;;;;;;;;;;;;;;;29.84;34.87;99928.16;5064381;28;1421;-43
2022/08/26 13:01:29;;;;;;;;;;;;;;;29.76;35.44;99931.97;5062326;28;970;-44
2022/08/26 13:03:55;;;;;;;;;;;;;;;29.82;35.59;99935.69;5055881;28;1166;-42
2022/08/26 13:06:30;;;;;;;;;;;;;;;29.75;35.60;99932.19;5071733;28;1299;-46
2022/08/26 13:08:55;;;;;;;;;;;;;;;29.75;35.39;99929.47;5068591;28;948;-44